createdAt,value
2018-06-08T00:01:42.027Z,56.7
2018-06-08T00:06:38.732Z,56.7
2018-06-08T00:11:35.282Z,56.8
2018-06-08T00:16:31.818Z,56.9
2018-06-08T00:21:28.434Z,57.1
2018-06-08T00:26:24.939Z,57.1
2018-06-08T00:31:21.790Z,57.1
2018-06-08T00:36:18.408Z,57.1
2018-06-08T00:41:14.819Z,57.4
2018-06-08T00:46:11.057Z,57.7
2018-06-08T00:51:07.416Z,57.9
2018-06-08T00:56:04.163Z,57.7
2018-06-08T01:01:00.658Z,58
2018-06-08T01:05:57.188Z,58
2018-06-08T01:10:53.643Z,58.6
2018-06-08T01:15:49.885Z,58.8
2018-06-08T01:20:46.317Z,58.5
2018-06-08T01:25:42.274Z,58.4
2018-06-08T01:30:38.649Z,58.8
2018-06-08T01:35:34.869Z,59.1
2018-06-08T01:40:31.150Z,59.4
2018-06-08T01:45:27.474Z,59.1
2018-06-08T01:50:24.038Z,59
2018-06-08T01:55:20.843Z,59.2
2018-06-08T02:00:16.711Z,59.1
2018-06-08T02:05:13.057Z,59.7
2018-06-08T02:10:09.555Z,59.5
2018-06-08T02:15:05.388Z,59.5
2018-06-08T02:20:02.193Z,59.4
2018-06-08T02:24:59.151Z,59.5
2018-06-08T02:29:55.453Z,60
2018-06-08T02:34:52.318Z,59.9
2018-06-08T02:39:48.891Z,60
2018-06-08T02:44:46.132Z,60.1
2018-06-08T02:49:41.715Z,60.5
2018-06-08T02:54:38.141Z,60.1
2018-06-08T02:59:34.798Z,60.1
2018-06-08T03:04:31.141Z,60.2
2018-06-08T03:09:27.643Z,60.4
2018-06-08T03:14:23.662Z,60.5
2018-06-08T03:19:20.226Z,60.7
2018-06-08T03:24:16.784Z,61.6
2018-06-08T03:29:13.077Z,61.6
2018-06-08T03:34:09.723Z,61.3
2018-06-08T03:39:06.522Z,61
2018-06-08T03:44:02.844Z,61.3
2018-06-08T03:48:59.511Z,60.9
2018-06-08T03:53:55.752Z,60.9
2018-06-08T03:58:52.369Z,61.1
2018-06-08T04:03:48.786Z,61.4
2018-06-08T04:08:45.285Z,61.4
2018-06-08T04:13:41.793Z,61.5
2018-06-08T04:18:38.026Z,61.5
2018-06-08T04:23:34.634Z,61.6
2018-06-08T04:28:31.308Z,61.3
2018-06-08T04:33:27.449Z,61.8
2018-06-08T04:38:23.670Z,61.4
2018-06-08T04:43:19.976Z,61.5
2018-06-08T04:48:16.313Z,61.7
2018-06-08T04:53:12.764Z,60.9
2018-06-08T04:58:08.933Z,61.1
2018-06-08T05:03:05.109Z,61
2018-06-08T05:08:01.295Z,61
2018-06-08T05:12:58.033Z,61.2
2018-06-08T05:17:53.730Z,61.1
2018-06-08T05:22:49.943Z,61.2
2018-06-08T05:27:46.252Z,60.9
2018-06-08T05:32:42.560Z,61.1
2018-06-08T05:37:38.880Z,60.7
2018-06-08T05:42:35.101Z,60.7
2018-06-08T05:47:31.292Z,60.7
2018-06-08T05:52:27.649Z,60.7
2018-06-08T05:57:24.056Z,60.6
2018-06-08T06:02:20.383Z,60.7
2018-06-08T06:07:17.144Z,60.7
2018-06-08T06:12:14.181Z,60.4
2018-06-08T06:17:10.301Z,60.5
2018-06-08T06:22:06.697Z,60.6
2018-06-08T06:27:03.068Z,60.3
2018-06-08T06:31:59.422Z,60.2
2018-06-08T06:36:55.740Z,60.3
2018-06-08T06:41:52.137Z,60.2
2018-06-08T06:46:47.235Z,60
2018-06-08T06:51:43.621Z,59.9
2018-06-08T06:56:40.169Z,59.7
2018-06-08T07:01:36.350Z,59.6
2018-06-08T07:06:32.051Z,59.6
2018-06-08T07:11:28.646Z,59.3
2018-06-08T07:16:25.130Z,58.6
2018-06-08T07:21:21.668Z,58.7
2018-06-08T07:26:18.255Z,58.9
2018-06-08T07:31:14.533Z,58.8
2018-06-08T07:36:10.784Z,58.9
2018-06-08T07:41:07.393Z,58.6
2018-06-08T07:46:03.797Z,57.5
2018-06-08T07:51:00.411Z,57.6
2018-06-08T07:55:56.798Z,57.6
2018-06-08T08:00:53.322Z,57.1
2018-06-08T08:05:50.031Z,56.6
2018-06-08T08:10:46.590Z,56.7
2018-06-08T08:15:43.057Z,56.7
2018-06-08T08:20:39.797Z,56.2
2018-06-08T08:25:36.262Z,56.1
2018-06-08T08:30:32.925Z,56
2018-06-08T08:35:29.466Z,55.8
2018-06-08T08:40:26.219Z,55.3
2018-06-08T08:45:23.024Z,54.7
2018-06-08T08:50:19.636Z,54.7
2018-06-08T08:55:15.456Z,54.7
2018-06-08T09:00:12.121Z,54.3
2018-06-08T09:05:08.822Z,54.2
2018-06-08T09:10:05.840Z,53.8
2018-06-08T09:15:02.169Z,53.5
2018-06-08T09:19:58.725Z,53.3
2018-06-08T09:24:55.421Z,52.5
2018-06-08T09:29:52.040Z,51.8
2018-06-08T09:34:48.523Z,51.3
2018-06-08T09:39:45.135Z,50.8
2018-06-08T09:44:42.206Z,50.4
2018-06-08T09:49:39.072Z,50.1
2018-06-08T09:54:35.812Z,49.8
2018-06-08T09:59:32.379Z,49.3
2018-06-08T10:04:28.819Z,48.7
2018-06-08T10:09:25.560Z,48.7
2018-06-08T10:14:22.535Z,48.6
2018-06-08T10:19:18.665Z,48.6
2018-06-08T10:24:15.197Z,48.7
2018-06-08T10:29:12.510Z,49.1
2018-06-08T10:34:09.169Z,48.9
2018-06-08T10:39:05.817Z,48.7
2018-06-08T10:44:02.142Z,48.4
2018-06-08T10:48:58.547Z,48.4
2018-06-08T10:53:55.321Z,48.3
2018-06-08T10:58:51.874Z,48.2
2018-06-08T11:03:48.149Z,48.2
2018-06-08T11:08:44.960Z,47.8
2018-06-08T11:13:41.915Z,46.6
2018-06-08T11:18:38.869Z,46.2
2018-06-08T11:23:35.540Z,46.3
2018-06-08T11:28:32.112Z,45.9
2018-06-08T11:33:28.910Z,45.8
2018-06-08T11:38:25.399Z,45.4
2018-06-08T11:43:21.906Z,45.4
2018-06-08T11:48:17.995Z,44.8
2018-06-08T11:53:14.280Z,44.3
2018-06-08T11:58:11.591Z,43.4
2018-06-08T12:03:08.400Z,43.3
2018-06-08T12:08:04.291Z,43.4
2018-06-08T12:13:00.870Z,43.3
2018-06-08T12:17:58.047Z,43.1
2018-06-08T12:22:54.625Z,43
2018-06-08T12:27:51.576Z,42.6
2018-06-08T12:32:48.477Z,42.7
2018-06-08T12:37:45.234Z,42.3
2018-06-08T12:42:41.865Z,42
2018-06-08T12:47:38.201Z,41.6
2018-06-08T12:52:34.954Z,41.6
2018-06-08T12:57:31.790Z,41.4
2018-06-08T13:02:28.153Z,41.6
2018-06-08T13:07:24.881Z,41.9
2018-06-08T13:12:21.418Z,41.3
2018-06-08T13:17:18.205Z,41.1
2018-06-08T13:22:15.263Z,41.3
2018-06-08T13:27:11.824Z,41.3
2018-06-08T13:32:08.419Z,41.6
2018-06-08T13:37:05.073Z,42
2018-06-08T13:42:01.687Z,42
2018-06-08T13:46:58.367Z,41.8
2018-06-08T13:51:55.061Z,41.6
2018-06-08T13:56:51.697Z,41.4
2018-06-08T14:01:48.076Z,41.2
2018-06-08T14:06:44.817Z,41.1
2018-06-08T14:11:40.487Z,41
2018-06-08T14:16:37.012Z,40.8
2018-06-08T14:21:34.199Z,40.8
2018-06-08T14:26:30.348Z,40.8
2018-06-08T14:31:26.879Z,40.6
2018-06-08T14:36:23.336Z,40.7
2018-06-08T14:41:19.927Z,40.4
2018-06-08T14:46:16.402Z,39.9
2018-06-08T14:51:13.146Z,39.8
2018-06-08T14:56:09.578Z,39.5
2018-06-08T15:01:06.170Z,39.2
2018-06-08T15:06:02.282Z,38.9
2018-06-08T15:10:58.954Z,39
2018-06-08T15:15:56.532Z,39
2018-06-08T15:20:51.994Z,38.7
2018-06-08T15:25:48.442Z,38.7
2018-06-08T15:30:45.085Z,38.4
2018-06-08T15:35:41.396Z,38.1
2018-06-08T15:40:37.854Z,38.2
2018-06-08T15:45:34.117Z,37.7
2018-06-08T15:50:30.724Z,37.8
2018-06-08T15:55:27.080Z,37.6
2018-06-08T16:00:23.017Z,37.8
2018-06-08T16:05:19.242Z,38.3
2018-06-08T16:10:16.133Z,38.9
2018-06-08T16:15:12.896Z,39.3
2018-06-08T16:20:09.139Z,39.5
2018-06-08T16:25:05.762Z,39.7
2018-06-08T16:30:02.388Z,40.1
2018-06-08T16:34:58.857Z,40.4
2018-06-08T16:39:55.599Z,40.7
2018-06-08T16:44:51.965Z,40.9
2018-06-08T16:49:48.293Z,41
2018-06-08T16:54:45.107Z,41.1
2018-06-08T16:59:41.608Z,41.3
2018-06-08T17:04:38.739Z,41.6
2018-06-08T17:09:35.287Z,42
2018-06-08T17:14:31.834Z,42.3
2018-06-08T17:19:28.427Z,42.5
2018-06-08T17:24:24.853Z,42.5
2018-06-08T17:29:20.958Z,42.6
2018-06-08T17:34:17.586Z,42.7
2018-06-08T17:39:14.078Z,42.8
2018-06-08T17:44:10.455Z,42.9
2018-06-08T17:49:07.010Z,43.1
2018-06-08T17:54:03.684Z,43.2
2018-06-08T17:59:00.359Z,43.4
2018-06-08T18:03:56.792Z,43.7
2018-06-08T18:08:52.772Z,43.9
2018-06-08T18:13:49.183Z,44
2018-06-08T18:18:46.112Z,44.2
2018-06-08T18:23:42.446Z,44.3
2018-06-08T18:28:38.199Z,44.5
2018-06-08T18:33:35.002Z,44.6
2018-06-08T18:38:31.602Z,44.8
2018-06-08T18:43:28.603Z,45
2018-06-08T18:48:24.604Z,45.2
2018-06-08T18:53:21.354Z,45.2
2018-06-08T18:58:18.029Z,45.4
2018-06-08T19:03:14.793Z,45.5
2018-06-08T19:08:11.427Z,45.9
2018-06-08T19:13:08.077Z,46
2018-06-08T19:18:04.715Z,46.1
2018-06-08T19:23:01.336Z,46.2
2018-06-08T19:27:57.582Z,46.4
2018-06-08T19:32:54.506Z,46.5
2018-06-08T19:37:50.619Z,46.6
2018-06-08T19:42:47.324Z,46.7
2018-06-08T19:47:43.932Z,46.8
2018-06-08T19:52:40.127Z,46.8
2018-06-08T19:57:36.774Z,46.8
2018-06-08T20:02:33.459Z,46.9
2018-06-08T20:07:29.853Z,46.9
2018-06-08T20:12:26.285Z,46.9
2018-06-08T20:17:22.912Z,46.9
2018-06-08T20:22:19.478Z,46.9
2018-06-08T20:27:16.257Z,47
2018-06-08T20:32:12.933Z,47.1
2018-06-08T20:37:09.662Z,47.1
2018-06-08T20:42:06.170Z,47.1
2018-06-08T20:47:02.868Z,47
2018-06-08T20:51:59.389Z,47.1
2018-06-08T20:56:56.120Z,47
2018-06-08T21:01:52.606Z,47.1
2018-06-08T21:06:49.151Z,47.1
2018-06-08T21:11:45.294Z,47.1
2018-06-08T21:16:41.919Z,46.9
2018-06-08T21:21:38.351Z,46.9
2018-06-08T21:26:34.657Z,47.1
2018-06-08T21:31:31.340Z,47.2
2018-06-08T21:36:27.766Z,47.4
2018-06-08T21:41:24.239Z,47.5
2018-06-08T21:46:20.786Z,47.6
2018-06-08T21:51:17.195Z,47.6
2018-06-08T21:56:13.565Z,47.7
2018-06-08T22:01:10.006Z,47.8
2018-06-08T22:06:06.437Z,47.7
2018-06-08T22:11:02.940Z,47.9
2018-06-08T22:15:59.138Z,47.9
2018-06-08T22:20:55.612Z,48
2018-06-08T22:25:51.858Z,48
2018-06-08T22:30:48.434Z,48.2
2018-06-08T22:35:44.934Z,48.3
2018-06-08T22:40:41.653Z,48.4
2018-06-08T22:45:38.358Z,48.5
2018-06-08T22:50:34.880Z,48.7
2018-06-08T22:55:31.673Z,48.8
2018-06-08T23:00:28.623Z,48.9
2018-06-08T23:05:24.966Z,49
2018-06-08T23:10:21.571Z,49
2018-06-08T23:15:18.301Z,48.9
2018-06-08T23:20:14.683Z,49.1
2018-06-08T23:25:11.267Z,49.2
2018-06-08T23:30:07.487Z,49.3
2018-06-08T23:35:07.403Z,49.4
2018-06-08T23:40:02.817Z,49.6
2018-06-08T23:44:59.710Z,49.7
2018-06-08T23:49:56.229Z,49.8
2018-06-08T23:54:52.815Z,49.9
2018-06-08T23:59:49.073Z,50.1
